This is the latest recevied weather packets stored in our database for station/object N3TTT-13. If no packets are shown the sender has not sent any weather packets the latest 1 day(s).
| Time | Temp. | Humidity | Pressure | Rain* | Wind** | Luminosity | Snow |
|---|---|---|---|---|---|---|---|
| 1778071878 | 20° C | 70% | 1011.4 hPa | 0 mm | - | 183 W/m² | - |
| 1778069761 | 19.44° C | 72% | 1011.5 hPa | 0 mm | - | 123 W/m² | - |
| 1778069155 | 20° C | 71% | 1011.4 hPa | 0 mm | - | 182 W/m² | - |
| 1778067341 | 18.33° C | 75% | 1011 hPa | 0 mm | - | 69 W/m² | - |
| 1778067038 | 18.33° C | 75% | 1011.5 hPa | 0 mm | - | 62 W/m² | - |
| 1778066432 | 18.33° C | 75% | 1011 hPa | 0 mm | - | 57 W/m² | - |
| 1778066130 | 18.89° C | 74% | 1011.1 hPa | 0 mm | - | 51 W/m² | - |
| 1778065827 | 19.44° C | 74% | 1011 hPa | 0 mm | - | 75 W/m² | - |
| 1778063103 | 17.78° C | 78% | 1011.2 hPa | 0 mm | - | 16 W/m² | - |
| 1778060983 | 17.78° C | 79% | 1011.1 hPa | 0 mm | - | 0 W/m² | - |
| 1778060682 | 17.78° C | 79% | 1011.1 hPa | 0 mm | - | 0 W/m² | - |
| 1778060379 | 17.78° C | 79% | 1011 hPa | 0 mm | - | 0 W/m² | - |
| 1778060077 | 17.78° C | 79% | 1010.9 hPa | 0 mm | - | 0 W/m² | - |
| 1778059169 | 17.78° C | 78% | 1010.9 hPa | 0 mm | - | 0 W/m² | - |
| 1778058867 | 17.78° C | 78% | 1010.7 hPa | 0 mm | - | 0 W/m² | - |
| 1778058564 | 17.78° C | 78% | 1011 hPa | 0 mm | - | 0 W/m² | - |
| 1778057958 | 17.78° C | 79% | 1010.9 hPa | 0 mm | - | 0 W/m² | - |
| 1778057655 | 17.78° C | 79% | 1010.9 hPa | 0 mm | - | 0 W/m² | - |
| 1778057351 | 17.78° C | 79% | 1011 hPa | 0 mm | - | 0 W/m² | - |
| 1778057048 | 17.78° C | 79% | 1011 hPa | 0 mm | - | 0 W/m² | - |
| 1778056744 | 17.78° C | 80% | 1011.1 hPa | 0 mm | - | 0 W/m² | - |
| 1778056139 | 18.33° C | 80% | 1010.9 hPa | 0 mm | - | 0 W/m² | - |
| 1778055531 | 17.78° C | 80% | 1011.4 hPa | 0 mm | - | 0 W/m² | - |
| 1778055230 | 18.33° C | 80% | 1011.4 hPa | 0 mm | - | 0 W/m² | - |
| 1778053716 | 18.33° C | 80% | 1011.5 hPa | 0 mm | - | 0 W/m² | - |
* Rain latest hour (hover to see other rain measurements)
** Current wind speed in m/s (hover to see current wind gust speed)